createdAt,value
2023-04-07T00:01:54.770Z,40.63
2023-04-07T00:04:24.490Z,36.57
2023-04-07T00:06:53.298Z,38.80
2023-04-07T00:09:21.427Z,42.17
2023-04-07T00:11:50.138Z,38.57
2023-04-07T00:14:18.244Z,38.13
2023-04-07T00:16:46.732Z,37.90
2023-04-07T00:19:15.993Z,40.10
2023-04-07T00:21:45.487Z,41.00
2023-04-07T00:24:16.382Z,42.87
2023-04-07T00:26:52.172Z,41.93
2023-04-07T00:29:22.782Z,46.67
2023-04-07T00:31:51.027Z,41.47
2023-04-07T00:34:19.180Z,43.33
2023-04-07T00:36:52.212Z,42.70
2023-04-07T00:39:20.685Z,45.13
2023-04-07T00:41:51.353Z,43.43
2023-04-07T00:44:19.508Z,44.20
2023-04-07T00:46:49.653Z,45.37
2023-04-07T00:49:19.194Z,44.90
2023-04-07T00:51:49.028Z,50.03
2023-04-07T00:54:17.138Z,44.73
2023-04-07T00:56:45.308Z,45.47
2023-04-07T00:59:13.557Z,42.90
2023-04-07T01:01:47.437Z,49.37
2023-04-07T01:04:23.800Z,49.10
2023-04-07T01:07:01.293Z,41.67
2023-04-07T01:09:36.416Z,44.40
2023-04-07T01:12:08.889Z,47.63
2023-04-07T01:14:43.746Z,44.27
2023-04-07T01:17:14.149Z,43.73
2023-04-07T01:19:45.806Z,46.40
2023-04-07T01:22:18.873Z,44.23
2023-04-07T01:25:15.563Z,47.40
2023-04-07T01:27:50.372Z,47.20
2023-04-07T01:30:20.431Z,41.67
2023-04-07T01:32:53.315Z,45.07
2023-04-07T01:35:23.361Z,42.80
2023-04-07T01:37:52.233Z,39.50
2023-04-07T01:40:22.508Z,42.47
2023-04-07T01:42:51.406Z,41.37
2023-04-07T01:45:22.802Z,45.93
2023-04-07T01:47:51.552Z,43.03
2023-04-07T01:50:20.647Z,42.87
2023-04-07T01:52:49.387Z,39.57
2023-04-07T01:55:17.475Z,46.87
2023-04-07T01:57:45.555Z,44.13
2023-04-07T02:00:17.196Z,45.10
2023-04-07T02:02:50.556Z,46.13
2023-04-07T02:05:23.113Z,46.23
2023-04-07T02:07:57.108Z,43.47
2023-04-07T02:10:27.726Z,45.60
2023-04-07T02:12:56.634Z,47.07
2023-04-07T02:15:26.573Z,45.93
2023-04-07T02:18:01.554Z,43.77
2023-04-07T02:20:30.719Z,44.73
2023-04-07T02:22:59.165Z,43.47
2023-04-07T02:25:28.871Z,45.13
2023-04-07T02:27:58.179Z,45.17
2023-04-07T02:30:27.153Z,45.77
2023-04-07T02:32:56.952Z,50.17
2023-04-07T02:35:25.561Z,44.80
2023-04-07T02:37:54.045Z,48.50
2023-04-07T02:40:22.484Z,46.70
2023-04-07T02:42:50.789Z,45.37
2023-04-07T02:45:19.233Z,50.43
2023-04-07T02:47:47.523Z,50.43
2023-04-07T02:50:17.230Z,50.70
2023-04-07T02:52:45.688Z,50.07
2023-04-07T02:55:17.078Z,45.37
2023-04-07T02:57:45.316Z,48.57
2023-04-07T03:00:15.959Z,46.03
2023-04-07T03:02:44.293Z,50.70
2023-04-07T03:05:12.729Z,44.03
2023-04-07T03:07:42.458Z,48.63
2023-04-07T03:10:11.527Z,46.77
2023-04-07T03:12:39.597Z,47.10
2023-04-07T03:15:11.168Z,46.87
2023-04-07T03:17:39.370Z,44.63
2023-04-07T03:20:09.144Z,45.30
2023-04-07T03:22:39.396Z,44.37
2023-04-07T03:25:09.675Z,48.07
2023-04-07T03:27:39.231Z,45.77
2023-04-07T03:30:09.621Z,50.10
2023-04-07T03:32:38.673Z,49.77
2023-04-07T03:35:09.357Z,44.27
2023-04-07T03:37:39.916Z,47.57
2023-04-07T03:40:10.558Z,45.43
2023-04-07T03:42:39.068Z,48.60
2023-04-07T03:45:08.377Z,45.10
2023-04-07T03:47:37.476Z,45.40
2023-04-07T03:50:08.850Z,46.27
2023-04-07T03:52:37.129Z,51.10
2023-04-07T03:55:06.148Z,50.27
2023-04-07T03:57:37.914Z,43.23
2023-04-07T04:00:07.784Z,49.00
2023-04-07T04:02:36.553Z,47.43
2023-04-07T04:05:05.280Z,52.03
2023-04-07T04:07:33.946Z,47.13
2023-04-07T04:10:03.948Z,47.27
2023-04-07T04:12:32.135Z,49.47
2023-04-07T04:15:01.866Z,48.87
2023-04-07T04:17:30.359Z,50.23
2023-04-07T04:19:59.440Z,47.63
2023-04-07T04:22:27.536Z,44.07
2023-04-07T04:24:55.586Z,46.17
2023-04-07T04:27:23.986Z,52.17
2023-04-07T04:29:52.378Z,43.30
2023-04-07T04:32:22.530Z,42.37
2023-04-07T04:34:50.905Z,43.70
2023-04-07T04:37:19.296Z,43.60
2023-04-07T04:39:47.579Z,44.67
2023-04-07T04:42:17.746Z,46.47
2023-04-07T04:44:48.893Z,42.47
2023-04-07T04:47:24.837Z,44.03
2023-04-07T04:49:53.205Z,39.53
2023-04-07T04:52:21.894Z,40.93
2023-04-07T04:54:50.106Z,40.93
2023-04-07T04:57:18.357Z,40.60
2023-04-07T04:59:46.834Z,45.60
2023-04-07T05:02:15.099Z,41.30
2023-04-07T05:04:45.600Z,44.23
2023-04-07T05:07:13.843Z,44.37
2023-04-07T05:09:41.927Z,43.57
2023-04-07T05:12:09.933Z,45.03
2023-04-07T05:14:38.162Z,43.80
2023-04-07T05:17:07.076Z,44.23
2023-04-07T05:19:35.550Z,43.43
2023-04-07T05:22:05.141Z,42.93
2023-04-07T05:24:33.623Z,46.10
2023-04-07T05:27:01.948Z,46.03
2023-04-07T05:29:30.639Z,45.77
2023-04-07T05:31:58.773Z,45.53
2023-04-07T05:34:27.395Z,47.80
2023-04-07T05:36:55.413Z,47.37
2023-04-07T05:39:25.029Z,43.20
2023-04-07T05:41:53.552Z,43.30
2023-04-07T05:44:21.608Z,45.40
2023-04-07T05:46:52.039Z,47.40
2023-04-07T05:49:20.777Z,46.40
2023-04-07T05:51:49.539Z,42.80
2023-04-07T05:54:17.731Z,42.60
2023-04-07T05:56:47.693Z,44.80
2023-04-07T05:59:15.915Z,42.57
2023-04-07T06:01:44.243Z,41.13
2023-04-07T06:04:12.591Z,42.43
2023-04-07T06:06:40.976Z,41.40
2023-04-07T06:09:09.111Z,44.60
2023-04-07T06:11:37.470Z,41.03
2023-04-07T06:14:07.038Z,38.70
2023-04-07T06:16:35.226Z,41.50
2023-04-07T06:19:03.783Z,41.83
2023-04-07T06:21:32.051Z,43.37
2023-04-07T06:24:00.328Z,41.00
2023-04-07T06:26:28.590Z,41.13
2023-04-07T06:28:56.869Z,40.83
2023-04-07T06:31:27.134Z,39.23
2023-04-07T06:33:55.605Z,41.43
2023-04-07T06:36:24.705Z,41.33
2023-04-07T06:38:53.015Z,42.73
2023-04-07T06:41:21.212Z,41.40
2023-04-07T06:43:51.393Z,44.80
2023-04-07T06:46:20.102Z,48.03
2023-04-07T06:48:49.507Z,40.23
2023-04-07T06:51:17.800Z,41.07
2023-04-07T06:53:47.631Z,43.17
2023-04-07T06:56:16.125Z,40.27
2023-04-07T06:58:44.165Z,36.53
2023-04-07T07:01:12.332Z,38.60
2023-04-07T07:03:40.497Z,38.10
2023-04-07T07:06:10.088Z,40.20
2023-04-07T07:08:38.117Z,36.33
2023-04-07T07:11:06.350Z,40.27
2023-04-07T07:13:34.637Z,41.80
2023-04-07T07:16:02.967Z,40.10
2023-04-07T07:18:31.864Z,34.43
2023-04-07T07:21:00.131Z,36.57
2023-04-07T07:23:31.698Z,36.97
2023-04-07T07:25:59.809Z,37.43
2023-04-07T07:28:29.267Z,34.00
2023-04-07T07:30:57.444Z,34.93
2023-04-07T07:33:27.164Z,39.27
2023-04-07T07:35:55.402Z,36.97
2023-04-07T07:38:24.013Z,33.93
2023-04-07T07:40:53.454Z,39.00
2023-04-07T07:43:21.646Z,34.40
2023-04-07T07:45:49.869Z,31.87
2023-04-07T07:48:18.117Z,34.53
2023-04-07T07:50:50.907Z,37.73
2023-04-07T07:53:21.028Z,38.80
2023-04-07T07:55:49.600Z,32.53
2023-04-07T07:58:19.297Z,36.80
2023-04-07T08:00:47.671Z,38.57
2023-04-07T08:03:16.476Z,33.33
2023-04-07T08:05:44.609Z,34.80
2023-04-07T08:08:12.654Z,38.30
2023-04-07T08:10:40.873Z,37.77
2023-04-07T08:13:08.932Z,39.33
2023-04-07T08:15:38.575Z,33.90
2023-04-07T08:18:07.191Z,37.60
2023-04-07T08:20:36.134Z,33.13
2023-04-07T08:23:04.166Z,35.97
2023-04-07T08:25:32.184Z,31.43
2023-04-07T08:28:00.188Z,32.80
2023-04-07T08:30:28.226Z,32.67
2023-04-07T08:32:57.983Z,31.87
2023-04-07T08:35:25.979Z,33.10
2023-04-07T08:37:53.873Z,33.43
2023-04-07T08:40:21.863Z,27.97
2023-04-07T08:42:50.508Z,33.83
2023-04-07T08:45:19.605Z,27.87
2023-04-07T08:47:49.379Z,27.73
2023-04-07T08:50:20.157Z,26.57
2023-04-07T08:52:53.352Z,29.33
2023-04-07T08:55:22.188Z,27.33
2023-04-07T08:57:50.552Z,27.43
2023-04-07T09:00:19.778Z,25.50
2023-04-07T09:02:49.589Z,27.90
2023-04-07T09:05:19.082Z,23.60
2023-04-07T09:07:47.045Z,28.27
2023-04-07T09:10:18.982Z,27.97
2023-04-07T09:12:56.167Z,27.93
2023-04-07T09:15:25.891Z,27.87
2023-04-07T09:17:58.061Z,27.23
2023-04-07T09:20:28.045Z,27.50
2023-04-07T09:23:10.810Z,26.43
2023-04-07T09:29:01.173Z,23.50
2023-04-07T09:31:49.116Z,20.70
2023-04-07T09:34:41.059Z,23.70
2023-04-07T09:37:33.904Z,24.53
2023-04-07T09:40:07.623Z,26.83
2023-04-07T09:42:38.105Z,26.77
2023-04-07T09:45:06.891Z,27.43
2023-04-07T09:47:34.939Z,23.57
2023-04-07T09:50:06.942Z,27.70
2023-04-07T09:55:30.246Z,24.70
2023-04-07T09:57:59.390Z,24.90
2023-04-07T10:00:27.506Z,25.30
2023-04-07T10:02:56.620Z,25.27
2023-04-07T10:05:25.271Z,26.55
2023-04-07T10:07:54.490Z,27.07
2023-04-07T10:10:22.829Z,24.53
2023-04-07T10:12:54.609Z,26.47
2023-04-07T10:15:23.431Z,22.20
2023-04-07T10:17:52.172Z,25.03
2023-04-07T10:20:21.616Z,23.83
2023-04-07T10:22:52.042Z,26.20
2023-04-07T10:25:22.353Z,19.80
2023-04-07T10:27:53.881Z,19.20
2023-04-07T10:30:25.200Z,20.98
2023-04-07T10:32:54.957Z,17.83
2023-04-07T10:35:24.060Z,16.27
2023-04-07T10:38:11.599Z,19.17
2023-04-07T10:40:40.279Z,20.23
2023-04-07T10:43:11.446Z,18.13
2023-04-07T10:45:59.406Z,20.00
2023-04-07T10:48:32.897Z,18.57
2023-04-07T10:51:17.993Z,18.90
2023-04-07T10:54:18.931Z,16.80
2023-04-07T10:57:07.843Z,16.60
2023-04-07T10:59:37.934Z,17.27
2023-04-07T11:02:36.353Z,17.03
2023-04-07T11:05:05.246Z,16.67
2023-04-07T11:07:51.237Z,15.40
2023-04-07T11:10:21.997Z,16.77
2023-04-07T11:13:03.418Z,15.10
2023-04-07T11:15:34.014Z,15.05
2023-04-07T11:18:21.448Z,13.90
2023-04-07T11:20:51.747Z,14.10
2023-04-07T11:23:20.995Z,13.67
2023-04-07T11:25:50.921Z,13.53
2023-04-07T11:28:19.405Z,12.53
2023-04-07T11:30:51.889Z,13.70
2023-04-07T11:33:22.229Z,13.20
2023-04-07T11:35:56.754Z,10.90
2023-04-07T11:38:27.251Z,11.07
2023-04-07T11:40:55.907Z,9.60
2023-04-07T11:43:26.434Z,12.33
2023-04-07T11:46:15.030Z,10.03
2023-04-07T11:48:44.062Z,10.63
2023-04-07T11:51:18.401Z,10.43
2023-04-07T11:54:00.914Z,9.90
2023-04-07T11:56:30.484Z,11.07
2023-04-07T11:58:59.168Z,8.77
2023-04-07T12:01:43.005Z,8.77
2023-04-07T12:04:17.473Z,6.63
2023-04-07T12:06:46.560Z,6.67
2023-04-07T12:09:29.566Z,6.90
2023-04-07T12:11:58.436Z,6.07
2023-04-07T12:14:27.661Z,7.03
2023-04-07T12:17:03.519Z,7.00
2023-04-07T12:19:34.831Z,7.50
2023-04-07T12:22:02.891Z,7.57
2023-04-07T12:24:32.233Z,5.40
2023-04-07T12:27:00.354Z,7.93
2023-04-07T12:29:31.044Z,7.17
2023-04-07T12:32:02.199Z,6.10
2023-04-07T12:34:30.200Z,5.87
2023-04-07T12:36:58.152Z,7.53
2023-04-07T12:39:26.292Z,7.00
2023-04-07T12:41:54.306Z,4.60
2023-04-07T12:44:22.295Z,6.33
2023-04-07T12:46:50.228Z,5.30
2023-04-07T12:49:19.559Z,7.43
2023-04-07T12:51:47.540Z,7.00
2023-04-07T12:54:15.744Z,7.20
2023-04-07T12:56:43.882Z,5.90
2023-04-07T12:59:14.860Z,5.83
2023-04-07T13:01:43.110Z,5.20
2023-04-07T13:04:11.283Z,6.53
2023-04-07T13:06:40.798Z,10.90
2023-04-07T13:09:08.673Z,9.33
2023-04-07T13:11:36.649Z,8.10
2023-04-07T13:14:04.611Z,8.30
2023-04-07T13:16:32.735Z,8.07
2023-04-07T13:19:01.081Z,9.33
2023-04-07T13:21:45.277Z,7.77
2023-04-07T13:24:16.268Z,7.37
2023-04-07T13:26:44.220Z,6.73
2023-04-07T13:29:12.273Z,6.63
2023-04-07T13:31:40.367Z,7.40
2023-04-07T13:34:08.619Z,7.33
2023-04-07T13:36:36.612Z,6.47
2023-04-07T13:39:04.654Z,5.10
2023-04-07T13:41:34.103Z,5.90
2023-04-07T13:44:02.552Z,5.80
2023-04-07T13:46:30.697Z,6.40
2023-04-07T13:48:58.738Z,5.00
2023-04-07T13:51:28.002Z,4.80
2023-04-07T13:53:56.048Z,4.70
2023-04-07T13:56:24.033Z,6.17
2023-04-07T13:58:54.018Z,5.03
2023-04-07T14:01:22.289Z,4.40
2023-04-07T14:03:50.590Z,6.17
2023-04-07T14:06:18.859Z,5.90
2023-04-07T14:08:46.844Z,5.60
2023-04-07T14:11:18.320Z,6.03
2023-04-07T14:13:46.920Z,4.40
2023-04-07T14:16:17.903Z,4.57
2023-04-07T14:18:46.962Z,4.93
2023-04-07T14:21:15.212Z,4.63
2023-04-07T14:23:43.352Z,3.57
2023-04-07T14:26:12.500Z,4.60
2023-04-07T14:28:40.931Z,5.10
2023-04-07T14:31:14.017Z,4.10
2023-04-07T14:33:44.196Z,4.53
2023-04-07T14:36:12.530Z,4.83
2023-04-07T14:38:40.942Z,7.13
2023-04-07T14:41:10.379Z,8.43
2023-04-07T14:43:39.143Z,5.10
2023-04-07T14:46:07.259Z,4.67
2023-04-07T14:48:35.277Z,3.80
2023-04-07T14:51:09.818Z,3.63
2023-04-07T14:53:38.073Z,4.40
2023-04-07T14:56:06.277Z,4.93
2023-04-07T14:58:37.212Z,4.10
2023-04-07T15:01:06.463Z,4.60
2023-04-07T15:03:35.676Z,4.53
2023-04-07T15:06:08.144Z,3.60
2023-04-07T15:08:36.155Z,3.23
2023-04-07T15:11:05.652Z,2.90
2023-04-07T15:13:33.664Z,6.17
2023-04-07T15:16:07.910Z,2.73
2023-04-07T15:18:36.086Z,1.60
2023-04-07T15:21:06.057Z,3.13
2023-04-07T15:23:34.607Z,1.53
2023-04-07T15:26:02.763Z,2.80
2023-04-07T15:28:30.931Z,3.33
2023-04-07T15:31:00.586Z,1.37
2023-04-07T15:33:30.959Z,1.13
2023-04-07T15:36:00.249Z,1.83
2023-04-07T15:38:30.476Z,1.40
2023-04-07T15:41:06.170Z,1.47
2023-04-07T15:43:34.543Z,1.20
2023-04-07T15:46:03.092Z,1.20
2023-04-07T15:48:31.301Z,1.00
2023-04-07T15:50:59.392Z,1.93
2023-04-07T15:53:27.654Z,1.10
2023-04-07T15:55:57.134Z,1.13
2023-04-07T15:58:28.080Z,1.43
2023-04-07T16:00:56.469Z,1.27
2023-04-07T16:03:28.199Z,1.60
2023-04-07T16:05:58.740Z,1.90
2023-04-07T16:08:27.634Z,0.70
2023-04-07T16:10:58.075Z,1.20
2023-04-07T16:13:27.729Z,1.10
2023-04-07T16:15:57.866Z,1.20
2023-04-07T16:18:26.198Z,0.83
2023-04-07T16:20:54.987Z,1.10
2023-04-07T16:23:23.384Z,0.80
2023-04-07T16:25:51.803Z,0.90
2023-04-07T16:28:22.141Z,1.20
2023-04-07T16:31:00.368Z,1.03
2023-04-07T16:33:31.568Z,1.40
2023-04-07T16:35:59.708Z,4.17
2023-04-07T16:38:29.221Z,1.80
2023-04-07T16:41:04.001Z,0.80
2023-04-07T16:43:34.545Z,1.00
2023-04-07T16:46:02.789Z,1.20
2023-04-07T16:56:19.585Z,1.30
2023-04-07T16:59:43.332Z,1.23
2023-04-07T17:40:32.912Z,3.20
2023-04-07T17:43:29.535Z,2.87
2023-04-07T17:46:40.616Z,2.50
2023-04-07T17:49:09.975Z,1.30
2023-04-07T17:52:07.614Z,2.20
2023-04-07T17:57:20.741Z,1.47
2023-04-07T18:00:31.782Z,1.20
2023-04-07T18:03:01.643Z,1.93
2023-04-07T18:05:33.326Z,1.50
2023-04-07T18:08:03.613Z,2.83
2023-04-07T18:10:44.189Z,1.13
2023-04-07T18:16:33.591Z,1.30
2023-04-07T18:17:06.000Z,6.10
2023-04-07T18:20:14.230Z,1.80
2023-04-07T18:26:38.921Z,2.03
2023-04-07T18:29:41.353Z,2.30
2023-04-07T18:32:40.891Z,2.37
2023-04-07T18:35:14.545Z,3.33
2023-04-07T18:45:15.090Z,4.80
2023-04-07T18:51:41.095Z,2.57
2023-04-07T18:54:42.106Z,1.80
2023-04-07T19:01:57.722Z,2.07
2023-04-07T19:04:35.825Z,4.50
2023-04-07T19:07:08.945Z,3.17
2023-04-07T19:09:40.352Z,2.80
2023-04-07T19:12:17.476Z,2.90
2023-04-07T19:14:46.138Z,4.47
2023-04-07T19:17:16.633Z,2.67
2023-04-07T19:19:47.488Z,2.33
2023-04-07T19:22:19.294Z,2.90
2023-04-07T19:24:47.776Z,2.73
2023-04-07T19:27:23.918Z,2.30
2023-04-07T19:29:53.053Z,4.20
2023-04-07T19:32:23.266Z,2.93
2023-04-07T19:34:51.778Z,2.60
2023-04-07T19:37:26.172Z,2.40
2023-04-07T19:54:18.043Z,2.63
2023-04-07T19:58:50.332Z,7.43
2023-04-07T20:04:27.881Z,2.13
2023-04-07T20:07:13.506Z,4.50
2023-04-07T20:10:17.467Z,2.30
2023-04-07T20:16:54.779Z,2.10
2023-04-07T20:19:55.726Z,3.13
2023-04-07T20:36:48.221Z,3.13
2023-04-07T20:43:12.323Z,4.23
2023-04-07T20:52:39.634Z,3.57
2023-04-07T20:55:08.652Z,4.40
2023-04-07T20:57:36.739Z,3.40
2023-04-07T21:00:06.021Z,4.00
2023-04-07T21:02:34.549Z,4.07
2023-04-07T21:05:03.730Z,4.60
2023-04-07T21:07:32.338Z,4.07
2023-04-07T21:10:01.797Z,6.50
2023-04-07T21:12:29.846Z,3.93
2023-04-07T21:14:57.889Z,4.73
2023-04-07T21:17:26.123Z,3.63
2023-04-07T21:19:54.221Z,5.37
2023-04-07T21:22:22.384Z,6.30
2023-04-07T21:24:53.685Z,7.13
2023-04-07T21:27:24.549Z,8.90
2023-04-07T21:29:52.638Z,7.47
2023-04-07T21:32:20.737Z,6.97
2023-04-07T21:34:52.345Z,6.33
2023-04-07T21:37:20.369Z,5.77
2023-04-07T21:39:48.649Z,7.00
2023-04-07T21:42:16.668Z,5.50
2023-04-07T21:44:46.121Z,7.57
2023-04-07T21:47:14.830Z,5.47
2023-04-07T21:49:42.855Z,6.33
2023-04-07T21:52:10.977Z,5.97
2023-04-07T21:54:39.370Z,6.43
2023-04-07T21:57:07.921Z,6.10
2023-04-07T21:59:37.259Z,6.00
2023-04-07T22:02:07.283Z,6.87
2023-04-07T22:04:36.132Z,15.10
2023-04-07T22:07:07.356Z,28.13
2023-04-07T22:09:35.403Z,13.63
2023-04-07T22:12:03.557Z,9.27
2023-04-07T22:14:31.782Z,7.23
2023-04-07T22:16:59.889Z,8.17
2023-04-07T22:19:29.341Z,8.03
2023-04-07T22:21:57.400Z,8.67
2023-04-07T22:24:25.503Z,7.37
2023-04-07T22:26:53.983Z,5.73
2023-04-07T22:29:22.187Z,6.50
2023-04-07T22:31:50.541Z,6.80
2023-04-07T22:34:19.591Z,6.83
2023-04-07T22:36:49.303Z,7.70
2023-04-07T22:39:17.687Z,7.40
2023-04-07T22:41:45.747Z,7.90
2023-04-07T22:44:13.826Z,8.37
2023-04-07T22:46:41.826Z,7.67
2023-04-07T22:49:09.939Z,7.70
2023-04-07T22:51:38.029Z,7.50
2023-04-07T22:54:07.446Z,8.17
2023-04-07T22:56:35.541Z,8.47
2023-04-07T22:59:05.922Z,10.00
2023-04-07T23:01:34.506Z,7.90
2023-04-07T23:04:02.605Z,8.73
2023-04-07T23:06:32.139Z,9.63
2023-04-07T23:09:00.532Z,7.60
2023-04-07T23:11:29.991Z,8.43
2023-04-07T23:13:58.007Z,10.50
2023-04-07T23:16:26.284Z,7.57
2023-04-07T23:18:54.370Z,8.53
2023-04-07T23:21:22.499Z,10.97
2023-04-07T23:23:50.640Z,7.80
2023-04-07T23:26:18.806Z,8.37
2023-04-07T23:28:48.867Z,7.83
2023-04-07T23:31:18.429Z,9.20
2023-04-07T23:33:46.754Z,9.37
2023-04-07T23:36:14.787Z,12.47
2023-04-07T23:38:42.946Z,11.63
2023-04-07T23:41:11.115Z,12.57
2023-04-07T23:43:39.436Z,11.90
2023-04-07T23:46:09.035Z,12.07
2023-04-07T23:48:37.380Z,13.17
2023-04-07T23:51:06.008Z,12.33
2023-04-07T23:53:34.094Z,15.67
2023-04-07T23:56:02.557Z,13.97
2023-04-07T23:58:32.847Z,14.93
